LTAF/ADA METAR and TAF weather

Enter ICAO airport designator
Station Type Date Time Source
LTAF METAR 2022/08/16 18:50 UTC NOAA

LTAF 161850Z VRB02KT 9999 FEW035 27/23 Q1007 NOSIG


Station Type Date Time Source
LTAF Decoded METAR 2022/08/16 18:50 UTC NOAA

Adana / Sakirpasa, Turkey (LTAF) 36-59N 035-18E 20M
Aug 16, 2022 - 02:50 PM EDT / 2022.08.16 1850 UTC
Wind: Variable at 2 MPH (2 KT):0
Visibility: greater than 7 mile(s):0
Sky conditions: mostly clear
Temperature: 80 F (27 C)
Dew Point: 73 F (23 C)
Relative Humidity: 78%
Pressure (altimeter): 29.74 in. Hg (1007 hPa)
ob: LTAF 161850Z VRB02KT 9999 FEW035 27/23 Q1007 NOSIG
cycle: 19

Station Type Date Time Source
LTAF TAF 2022/08/16 18:02 UTC NOAA

TAF LTAF 161640Z 1618/1718 VRB02KT 9999 SCT030
BECMG 1709/1711 21012KT CAVOK
BECMG 1716/1718 VRB02KT SCT030

Example: see airport list